Prairie, Mississippi
Current Conditions -  °F | °C
As of 6:35 AM on Thursday 18 Dec 2014 (Local Time) from KM40 Reporting Station
NA  
Wind Chill: 43°   Ceiling: NA
Heat Index: 43°   Visibility: 8mi
Dew Point: 28°   Wind: 0mph
Humidity: 57%   Direction: NA
Pressure: 30.23"   Gusts: NA
Location:  33.8°N, 88.67°W
Report Text: KM40 181235Z AUTO 00000KT 8SM 06/M02 A3023 RMK AO2
Loading
Personal Weather Stations






























Interactive Weather Map New forecast layout! Learn more

10-Day Weather Forecast

Advertisements
Track Severe Weather on mobile